Time;durP1;ratioP1;P1;durP2;ratioP2;P2;SDS_P1;SDS_P2;PMS_P1;PMS_P2;Temp;Humidity;BMP_temperature;BMP_pressure;BME280_temperature;BME280_humidity;BME280_pressure;Samples;Min_cycle;Max_cycle;Signal;HPM_P1;HPM_P2
2023/11/14 00:01:24;;;;;;;21.93;11.60;;;11.30;99.90;;;;;;6155338;23;20443;-69
2023/11/14 00:03:51;;;;;;;25.60;12.10;;;11.30;99.90;;;;;;6155591;23;20496;-69
2023/11/14 00:06:18;;;;;;;18.47;12.97;;;11.30;99.90;;;;;;6155296;23;20444;-69
2023/11/14 00:08:45;;;;;;;20.80;11.40;;;11.20;99.90;;;;;;6155118;23;20406;-69
2023/11/14 00:11:12;;;;;;;17.20;11.90;;;11.30;99.90;;;;;;6155299;23;20735;-69
2023/11/14 00:13:39;;;;;;;19.17;11.50;;;11.30;99.90;;;;;;6154821;23;20413;-68
2023/11/14 00:16:06;;;;;;;17.17;12.20;;;11.30;99.90;;;;;;6154795;23;20440;-69
2023/11/14 00:18:35;;;;;;;18.07;12.97;;;11.30;99.90;;;;;;6154583;23;20892;-69
2023/11/14 00:21:02;;;;;;;23.73;14.83;;;11.30;99.90;;;;;;6154888;23;20417;-69
2023/11/14 00:23:28;;;;;;;23.93;15.03;;;11.10;99.90;;;;;;6154858;23;20413;-69
2023/11/14 00:25:55;;;;;;;29.30;17.27;;;11.20;99.90;;;;;;6154707;23;20443;-69
2023/11/14 00:28:23;;;;;;;30.53;19.10;;;11.10;99.90;;;;;;6154584;23;20901;-69
2023/11/14 00:30:50;;;;;;;36.20;20.27;;;11.10;99.90;;;;;;6155197;23;20734;-68
2023/11/14 00:33:17;;;;;;;30.70;21.37;;;11.10;99.90;;;;;;6154807;23;20420;-69
2023/11/14 00:35:45;;;;;;;29.30;23.70;;;11.10;99.90;;;;;;6154565;23;20439;-68
2023/11/14 00:38:12;;;;;;;32.37;22.20;;;11.10;99.90;;;;;;6154546;23;20451;-69
2023/11/14 00:40:39;;;;;;;24.73;20.43;;;11.20;99.90;;;;;;6155059;23;20441;-69
2023/11/14 00:43:06;;;;;;;28.90;18.97;;;11.20;99.90;;;;;;6155007;23;20416;-69
2023/11/14 00:45:33;;;;;;;29.47;16.10;;;11.20;99.90;;;;;;6155654;23;20410;-68
2023/11/14 00:48:00;;;;;;;23.33;16.73;;;11.20;99.90;;;;;;6156893;23;20448;-69
2023/11/14 00:50:27;;;;;;;22.83;14.33;;;11.30;99.90;;;;;;6157135;23;20407;-68
2023/11/14 00:52:55;;;;;;;29.47;16.07;;;11.30;99.90;;;;;;6156726;23;20494;-68
2023/11/14 00:55:22;;;;;;;28.87;14.03;;;11.30;99.90;;;;;;6156812;23;20421;-69
2023/11/14 00:57:49;;;;;;;25.00;14.17;;;11.30;99.90;;;;;;6156420;23;20412;-68
2023/11/14 01:00:17;;;;;;;30.77;13.60;;;11.20;99.90;;;;;;6156511;23;20971;-68
2023/11/14 01:02:45;;;;;;;22.93;13.77;;;11.20;99.90;;;;;;6156954;23;20791;-69
2023/11/14 01:05:12;;;;;;;24.17;14.83;;;11.20;99.90;;;;;;6156814;23;20412;-69
2023/11/14 01:07:39;;;;;;;24.97;15.53;;;11.20;99.90;;;;;;6156868;23;20716;-68
2023/11/14 01:10:10;;;;;;;21.73;15.07;;;11.30;99.90;;;;;;6156824;23;20492;-68
2023/11/14 01:12:37;;;;;;;34.93;18.30;;;11.30;99.90;;;;;;6156951;23;20397;-68
2023/11/14 01:15:04;;;;;;;27.40;16.07;;;11.30;99.90;;;;;;6156421;23;20413;-68
2023/11/14 01:17:31;;;;;;;35.73;17.07;;;11.30;99.90;;;;;;6156407;23;20409;-69
2023/11/14 01:19:58;;;;;;;30.73;15.93;;;11.30;99.90;;;;;;6156529;23;20766;-68
2023/11/14 01:22:25;;;;;;;29.10;18.37;;;11.30;99.90;;;;;;6156851;23;20486;-68
2023/11/14 01:24:52;;;;;;;31.77;17.10;;;11.20;99.90;;;;;;6156683;23;20441;-69
2023/11/14 01:27:20;;;;;;;21.57;16.83;;;11.20;99.90;;;;;;6156770;23;20739;-69
2023/11/14 01:29:49;;;;;;;26.60;16.50;;;11.20;99.90;;;;;;6156552;23;20807;-69
2023/11/14 01:32:16;;;;;;;27.00;15.30;;;11.20;99.90;;;;;;6156366;23;20424;-68
2023/11/14 01:34:43;;;;;;;28.50;16.77;;;11.30;99.90;;;;;;6156253;23;20930;-69
2023/11/14 01:37:10;;;;;;;32.03;17.47;;;11.20;99.90;;;;;;6156692;23;20463;-68
2023/11/14 01:39:37;;;;;;;25.03;18.20;;;11.10;99.90;;;;;;6156482;23;21074;-69
2023/11/14 01:42:04;;;;;;;24.87;19.37;;;11.10;99.90;;;;;;6156236;23;20500;-69
2023/11/14 01:44:32;;;;;;;33.13;21.83;;;11.00;99.90;;;;;;6156175;23;20413;-69
2023/11/14 01:46:59;;;;;;;31.50;22.07;;;11.00;99.90;;;;;;6156275;23;20471;-69
2023/11/14 01:49:26;;;;;;;27.43;24.33;;;11.00;99.90;;;;;;6156232;23;20433;-69
2023/11/14 01:51:54;;;;;;;32.43;24.80;;;11.00;99.90;;;;;;6156454;23;20496;-69
2023/11/14 01:54:21;;;;;;;35.13;31.73;;;11.00;99.90;;;;;;6156435;23;20418;-68
2023/11/14 01:56:49;;;;;;;38.10;34.90;;;10.90;99.90;;;;;;6156067;23;20451;-69
2023/11/14 01:59:17;;;;;;;37.90;34.37;;;10.90;99.90;;;;;;6156499;23;20469;-69
2023/11/14 02:01:45;;;;;;;35.83;31.57;;;10.90;99.90;;;;;;6156552;23;20415;-69
2023/11/14 02:04:21;;;;;;;37.47;33.90;;;11.00;99.90;;;;;;6156300;23;20420;-69
2023/11/14 02:06:49;;;;;;;30.17;27.77;;;11.10;99.90;;;;;;6156111;23;20399;-69
2023/11/14 02:09:15;;;;;;;29.53;23.80;;;11.10;99.90;;;;;;6155805;23;20412;-69
2023/11/14 02:11:44;;;;;;;33.67;21.27;;;11.20;99.90;;;;;;6156371;23;20409;-68
2023/11/14 02:14:11;;;;;;;33.90;17.63;;;11.20;99.90;;;;;;6156224;23;20495;-69
2023/11/14 02:16:46;;;;;;;29.43;17.07;;;11.20;99.90;;;;;;6156020;23;20680;-69
2023/11/14 02:19:14;;;;;;;22.53;16.27;;;11.20;99.90;;;;;;6155571;23;20479;-69
2023/11/14 02:21:41;;;;;;;18.97;16.53;;;11.10;99.90;;;;;;6155974;23;20443;-69
2023/11/14 02:24:14;;;;;;;25.33;17.03;;;11.10;99.90;;;;;;6155808;23;20410;-69
2023/11/14 02:26:44;;;;;;;29.20;18.63;;;11.20;99.90;;;;;;6155922;23;20873;-69
2023/11/14 02:29:14;;;;;;;19.43;17.57;;;11.20;99.90;;;;;;6156039;23;20412;-68
2023/11/14 02:31:41;;;;;;;30.53;18.20;;;11.10;99.90;;;;;;6155767;23;20413;-68
2023/11/14 02:34:10;;;;;;;24.43;18.80;;;11.10;99.90;;;;;;6156073;23;20444;-68
2023/11/14 02:36:37;;;;;;;31.70;17.30;;;11.10;99.90;;;;;;6156126;23;20723;-69
2023/11/14 02:39:04;;;;;;;24.97;18.37;;;11.20;99.90;;;;;;6155480;23;20421;-69
2023/11/14 02:41:32;;;;;;;20.63;16.90;;;11.20;99.90;;;;;;6155721;23;20439;-69
2023/11/14 02:44:01;;;;;;;33.93;20.37;;;11.20;99.90;;;;;;6155850;23;20409;-69
2023/11/14 02:46:28;;;;;;;25.70;22.40;;;11.20;99.90;;;;;;6155760;23;20391;-69
2023/11/14 02:48:55;;;;;;;27.27;19.17;;;11.30;99.90;;;;;;6155333;23;20447;-69
2023/11/14 02:51:22;;;;;;;34.47;20.87;;;11.20;99.90;;;;;;6156012;23;20783;-69
2023/11/14 02:53:49;;;;;;;37.77;19.40;;;11.30;99.90;;;;;;6155972;23;20445;-69
2023/11/14 02:56:17;;;;;;;31.40;17.63;;;11.30;99.90;;;;;;6155614;23;20424;-69
2023/11/14 02:58:43;;;;;;;25.93;16.77;;;11.30;99.90;;;;;;6155236;23;20416;-69
2023/11/14 03:01:12;;;;;;;29.27;15.90;;;11.30;99.90;;;;;;6155866;23;20441;-69
2023/11/14 03:03:38;;;;;;;22.00;17.03;;;11.20;99.90;;;;;;6155703;23;20413;-69
2023/11/14 03:06:06;;;;;;;26.07;17.50;;;11.20;99.90;;;;;;6155848;23;20444;-69
2023/11/14 03:08:34;;;;;;;39.00;17.33;;;11.20;99.90;;;;;;6155001;23;20997;-69
2023/11/14 03:11:01;;;;;;;28.60;17.73;;;11.20;99.90;;;;;;6155318;23;20440;-69
2023/11/14 03:13:28;;;;;;;22.37;18.50;;;11.10;99.90;;;;;;6155838;23;20413;-69
2023/11/14 03:15:55;;;;;;;33.80;22.57;;;11.10;99.90;;;;;;6155735;23;20451;-69
2023/11/14 03:18:23;;;;;;;25.37;23.00;;;11.00;99.90;;;;;;6155524;23;20438;-69
2023/11/14 03:20:50;;;;;;;31.37;25.70;;;11.10;99.90;;;;;;6155644;23;20440;-69
2023/11/14 03:23:17;;;;;;;34.90;27.97;;;11.10;99.90;;;;;;6155730;23;20497;-69
2023/11/14 03:25:44;;;;;;;43.07;33.33;;;11.00;99.90;;;;;;6155229;23;20414;-69
2023/11/14 03:28:10;;;;;;;36.80;32.50;;;11.00;99.90;;;;;;6155485;23;20487;-69
2023/11/14 03:30:37;;;;;;;41.60;37.10;;;11.00;99.90;;;;;;6155275;23;20468;-69
2023/11/14 03:33:04;;;;;;;41.97;38.27;;;11.00;99.90;;;;;;6155148;23;20789;-68
2023/11/14 03:35:32;;;;;;;45.60;41.90;;;11.00;99.90;;;;;;6155571;23;20419;-69
2023/11/14 03:37:59;;;;;;;52.70;49.00;;;10.90;99.90;;;;;;6155387;23;20744;-69
2023/11/14 03:40:26;;;;;;;54.23;51.17;;;11.00;99.90;;;;;;6155460;23;20843;-68
2023/11/14 03:42:53;;;;;;;58.80;53.20;;;11.00;99.90;;;;;;6155567;23;20448;-68
2023/11/14 03:45:20;;;;;;;43.83;40.23;;;11.00;99.90;;;;;;6155335;23;20442;-69
2023/11/14 03:47:47;;;;;;;45.07;41.97;;;11.10;99.90;;;;;;6154932;23;20441;-69
2023/11/14 03:50:14;;;;;;;44.17;40.57;;;11.10;99.90;;;;;;6155342;23;20406;-68
2023/11/14 03:52:43;;;;;;;38.90;35.70;;;11.10;99.90;;;;;;6155459;23;20411;-68
2023/11/14 03:55:10;;;;;;;40.33;36.30;;;11.20;99.90;;;;;;6155181;23;20417;-69
2023/11/14 03:57:37;;;;;;;38.97;35.83;;;11.10;99.90;;;;;;6154976;23;20488;-68
2023/11/14 04:00:05;;;;;;;59.77;31.93;;;11.10;99.90;;;;;;6155111;23;20443;-68
2023/11/14 04:02:32;;;;;;;37.37;33.80;;;11.20;99.90;;;;;;6155283;23;20419;-69
2023/11/14 04:04:59;;;;;;;36.67;33.60;;;11.10;99.90;;;;;;6155194;23;20489;-69
2023/11/14 04:07:26;;;;;;;37.17;33.73;;;11.10;99.90;;;;;;6155289;23;20412;-69
2023/11/14 04:09:55;;;;;;;40.13;36.73;;;11.10;99.90;;;;;;6155090;23;20433;-69
2023/11/14 04:12:22;;;;;;;33.83;30.40;;;11.10;99.90;;;;;;6154783;23;20914;-69
2023/11/14 04:14:49;;;;;;;30.67;27.70;;;11.20;99.90;;;;;;6154812;23;20453;-69
2023/11/14 04:17:16;;;;;;;33.60;25.63;;;11.20;99.90;;;;;;6155164;23;20427;-68
2023/11/14 04:19:44;;;;;;;28.90;25.97;;;11.40;99.90;;;;;;6154221;23;20445;-69
2023/11/14 04:22:11;;;;;;;31.40;28.33;;;11.40;99.90;;;;;;6154857;23;20492;-69
2023/11/14 04:24:38;;;;;;;32.13;27.43;;;11.30;99.90;;;;;;6155086;23;20502;-69
2023/11/14 04:27:06;;;;;;;24.07;21.90;;;11.40;99.90;;;;;;6155043;23;20416;-69
2023/11/14 04:29:33;;;;;;;29.13;16.00;;;11.50;99.90;;;;;;6154517;23;20440;-70
2023/11/14 04:32:00;;;;;;;22.47;13.50;;;11.50;99.90;;;;;;6155106;23;20419;-69
2023/11/14 04:34:27;;;;;;;22.93;14.17;;;11.50;99.90;;;;;;6155004;23;20500;-69
2023/11/14 04:36:54;;;;;;;23.17;14.00;;;11.50;99.90;;;;;;6154733;23;20903;-69
2023/11/14 04:39:21;;;;;;;28.03;13.23;;;11.50;99.90;;;;;;6154475;23;20953;-69
2023/11/14 04:41:48;;;;;;;27.40;13.80;;;11.50;99.90;;;;;;6154700;23;20468;-69
2023/11/14 04:44:16;;;;;;;33.20;13.57;;;11.50;99.90;;;;;;6155083;23;20437;-69
2023/11/14 04:46:44;;;;;;;26.00;12.30;;;11.50;99.90;;;;;;6154634;23;20448;-69
2023/11/14 04:49:11;;;;;;;24.77;11.83;;;11.60;99.90;;;;;;6154506;23;20412;-69
2023/11/14 04:51:38;;;;;;;38.57;14.57;;;11.60;99.90;;;;;;6154709;23;20440;-69
2023/11/14 04:54:05;;;;;;;26.40;13.00;;;11.60;99.90;;;;;;6154419;23;20961;-69
2023/11/14 04:56:34;;;;;;;32.43;10.50;;;11.60;99.90;;;;;;6154603;23;20813;-69
2023/11/14 04:59:01;;;;;;;21.43;9.40;;;11.60;99.90;;;;;;6154862;23;20794;-69
2023/11/14 05:01:29;;;;;;;24.93;12.67;;;11.60;99.90;;;;;;6154927;23;20468;-69
2023/11/14 05:03:56;;;;;;;17.57;9.30;;;11.50;99.90;;;;;;6154916;23;20410;-69
2023/11/14 05:06:23;;;;;;;22.13;8.77;;;11.60;99.90;;;;;;6154918;23;20448;-69
2023/11/14 05:08:50;;;;;;;26.73;9.60;;;11.70;99.90;;;;;;6155123;23;20492;-68
2023/11/14 05:11:17;;;;;;;23.57;9.00;;;11.70;99.90;;;;;;6154964;23;20409;-69
2023/11/14 05:13:44;;;;;;;17.03;8.70;;;11.70;99.90;;;;;;6154844;23;20795;-69
2023/11/14 05:16:11;;;;;;;31.00;8.10;;;11.80;99.90;;;;;;6155128;23;20787;-69
2023/11/14 05:18:39;;;;;;;28.83;7.70;;;11.90;99.90;;;;;;6154723;23;20409;-68
2023/11/14 05:21:06;;;;;;;25.83;8.70;;;11.90;99.90;;;;;;6154360;23;20529;-69
2023/11/14 05:23:33;;;;;;;20.20;7.80;;;11.80;99.90;;;;;;6154894;23;20444;-69
2023/11/14 05:26:00;;;;;;;35.10;9.63;;;11.70;99.90;;;;;;6154521;23;20413;-69
2023/11/14 05:28:27;;;;;;;28.83;8.83;;;11.70;99.90;;;;;;6154340;23;20799;-69
2023/11/14 05:30:54;;;;;;;20.40;7.03;;;11.70;99.90;;;;;;6154031;23;20455;-69
2023/11/14 05:33:21;;;;;;;22.20;9.13;;;11.70;99.90;;;;;;6156720;23;20480;-69
2023/11/14 05:35:49;;;;;;;22.33;11.20;;;11.70;99.90;;;;;;6156653;23;20413;-68
2023/11/14 05:38:16;;;;;;;36.23;10.97;;;11.60;99.90;;;;;;6156615;23;20417;-68
2023/11/14 05:40:43;;;;;;;27.20;8.40;;;11.70;99.90;;;;;;6156723;23;20442;-68
2023/11/14 05:43:10;;;;;;;15.00;8.27;;;11.70;99.90;;;;;;6156856;23;20409;-68
2023/11/14 05:45:37;;;;;;;23.93;9.47;;;11.80;99.90;;;;;;6156322;23;20420;-68
2023/11/14 05:48:04;;;;;;;19.80;8.20;;;11.80;99.90;;;;;;6156043;23;20451;-69
2023/11/14 05:50:31;;;;;;;32.33;8.97;;;11.80;99.90;;;;;;6156689;23;20480;-69
2023/11/14 05:52:59;;;;;;;29.20;10.00;;;11.80;99.90;;;;;;6156222;23;20902;-69
2023/11/14 05:55:26;;;;;;;27.53;9.23;;;11.70;99.90;;;;;;6156355;23;20420;-69
2023/11/14 05:57:54;;;;;;;29.07;9.90;;;11.60;99.90;;;;;;6156604;23;20440;-69
2023/11/14 06:00:21;;;;;;;19.37;9.50;;;11.50;99.90;;;;;;6156457;23;20735;-69
2023/11/14 06:02:48;;;;;;;26.50;11.30;;;11.50;99.90;;;;;;6155905;23;20445;-69
2023/11/14 06:05:15;;;;;;;39.17;11.70;;;11.50;99.90;;;;;;6156081;23;20417;-69
2023/11/14 06:07:42;;;;;;;27.77;12.43;;;11.50;99.90;;;;;;6156462;23;20827;-69
2023/11/14 06:10:11;;;;;;;22.50;10.87;;;11.60;99.90;;;;;;6156599;23;20413;-69
2023/11/14 06:12:39;;;;;;;28.07;12.40;;;11.60;99.90;;;;;;6156496;23;20433;-69
2023/11/14 06:15:08;;;;;;;17.03;9.53;;;11.50;99.90;;;;;;6156346;23;20416;-68
2023/11/14 06:17:35;;;;;;;31.27;12.40;;;11.50;99.90;;;;;;6156408;23;20416;-69
2023/11/14 06:20:05;;;;;;;30.37;12.57;;;11.50;99.90;;;;;;6156414;23;20735;-69
2023/11/14 06:22:32;;;;;;;23.97;13.67;;;11.50;99.90;;;;;;6156051;23;20447;-69
2023/11/14 06:24:59;;;;;;;23.47;13.77;;;11.40;99.90;;;;;;6155868;23;20972;-69
2023/11/14 06:27:27;;;;;;;21.07;12.87;;;11.40;99.90;;;;;;6156265;23;20418;-69
2023/11/14 06:29:55;;;;;;;25.73;13.43;;;11.30;99.90;;;;;;6155913;23;20486;-69
2023/11/14 06:32:22;;;;;;;22.53;16.67;;;11.30;99.90;;;;;;6155375;23;20406;-69
2023/11/14 06:34:49;;;;;;;26.30;20.33;;;11.30;99.90;;;;;;6155860;23;20499;-69
2023/11/14 06:37:18;;;;;;;23.63;18.73;;;11.30;99.90;;;;;;6156021;23;20750;-69
2023/11/14 06:39:45;;;;;;;33.83;21.70;;;11.20;99.90;;;;;;6155504;23;20420;-69
2023/11/14 06:42:12;;;;;;;34.23;20.83;;;11.30;99.90;;;;;;6155557;23;20468;-68
2023/11/14 06:44:43;;;;;;;28.00;19.53;;;11.30;99.90;;;;;;6155118;23;20423;-69
2023/11/14 06:47:12;;;;;;;32.60;21.53;;;11.30;99.90;;;;;;6155686;23;20398;-69
2023/11/14 06:49:39;;;;;;;34.90;20.20;;;11.30;99.90;;;;;;6155481;23;20502;-69
2023/11/14 06:52:06;;;;;;;34.93;21.07;;;11.30;99.90;;;;;;6155736;23;20414;-69
2023/11/14 06:54:33;;;;;;;29.87;20.47;;;11.20;99.90;;;;;;6155576;23;20413;-69
2023/11/14 06:57:00;;;;;;;28.77;18.30;;;11.30;99.90;;;;;;6155438;23;20503;-68
2023/11/14 06:59:29;;;;;;;30.60;16.93;;;11.30;99.90;;;;;;6155763;23;20448;-69
2023/11/14 07:01:58;;;;;;;35.50;17.10;;;11.30;99.90;;;;;;6155582;23;20504;-69
2023/11/14 07:04:25;;;;;;;22.80;16.20;;;11.40;99.90;;;;;;6155943;23;20811;-69
2023/11/14 07:06:52;;;;;;;23.73;14.07;;;11.50;99.90;;;;;;6155615;23;20416;-69
2023/11/14 07:09:21;;;;;;;22.63;13.93;;;11.50;99.90;;;;;;6155588;23;20493;-68
2023/11/14 07:11:47;;;;;;;34.47;14.50;;;11.50;99.90;;;;;;6155811;23;20419;-69
2023/11/14 07:14:18;;;;;;;18.03;11.77;;;11.70;99.90;;;;;;6155762;23;20417;-69
2023/11/14 07:16:45;;;;;;;25.03;12.47;;;11.70;99.90;;;;;;6155964;23;20447;-69
2023/11/14 07:19:14;;;;;;;27.30;11.73;;;11.70;99.90;;;;;;6155027;23;20491;-69
2023/11/14 07:21:41;;;;;;;21.00;10.60;;;11.70;99.90;;;;;;6155691;23;20476;-69
2023/11/14 07:24:08;;;;;;;28.63;10.77;;;11.80;99.90;;;;;;6155572;23;20410;-69
2023/11/14 07:26:35;;;;;;;25.20;9.10;;;11.90;99.90;;;;;;6155676;23;20493;-69
2023/11/14 07:29:04;;;;;;;24.40;9.17;;;11.90;99.90;;;;;;6155120;23;20409;-69
2023/11/14 07:31:31;;;;;;;19.40;11.00;;;11.80;99.90;;;;;;6155348;23;20410;-69
2023/11/14 07:33:58;;;;;;;30.13;13.47;;;11.70;99.90;;;;;;6155122;23;20416;-70
2023/11/14 07:36:26;;;;;;;17.07;11.47;;;11.70;99.90;;;;;;6155198;23;20420;-70
2023/11/14 07:38:53;;;;;;;27.43;13.87;;;11.70;99.90;;;;;;6154765;23;20500;-70
2023/11/14 07:41:20;;;;;;;25.30;11.93;;;11.70;99.90;;;;;;6154530;23;20469;-69
2023/11/14 07:43:49;;;;;;;19.83;10.93;;;11.80;99.90;;;;;;6154866;23;20953;-69
2023/11/14 07:46:17;;;;;;;35.10;10.40;;;11.90;99.90;;;;;;6155562;23;20410;-69
2023/11/14 07:48:44;;;;;;;27.07;10.10;;;11.90;99.90;;;;;;6154741;23;20464;-69
2023/11/14 07:51:11;;;;;;;22.03;7.43;;;11.90;99.90;;;;;;6154964;23;20437;-69
2023/11/14 07:53:39;;;;;;;23.70;8.23;;;11.90;99.90;;;;;;6155110;23;20492;-69
2023/11/14 07:56:07;;;;;;;21.63;7.57;;;12.00;99.90;;;;;;6154670;23;20505;-69
2023/11/14 07:58:34;;;;;;;26.83;8.10;;;12.10;99.90;;;;;;6154758;23;20410;-69
2023/11/14 08:01:01;;;;;;;19.90;6.87;;;12.20;99.90;;;;;;6155381;23;20437;-69
2023/11/14 08:03:28;;;;;;;18.07;5.90;;;12.40;99.90;;;;;;6155073;23;20414;-69
2023/11/14 08:05:55;;;;;;;24.33;5.87;;;12.40;99.90;;;;;;6155338;23;20409;-69
2023/11/14 08:08:22;;;;;;;21.17;6.10;;;12.40;99.90;;;;;;6155241;23;20445;-69
2023/11/14 08:10:50;;;;;;;29.43;5.17;;;12.40;99.90;;;;;;6153361;23;20410;-69
2023/11/14 08:13:17;;;;;;;14.83;5.20;;;12.40;99.90;;;;;;6153721;23;20410;-69
2023/11/14 08:15:44;;;;;;;21.43;5.77;;;12.40;99.90;;;;;;6154615;23;20413;-69
2023/11/14 08:18:12;;;;;;;19.43;5.00;;;12.40;99.90;;;;;;6154123;23;20468;-69
2023/11/14 08:20:39;;;;;;;19.80;4.50;;;12.40;99.90;;;;;;6153913;23;20417;-69
2023/11/14 08:23:06;;;;;;;18.83;5.73;;;12.40;99.90;;;;;;6154390;23;20438;-69
2023/11/14 08:25:33;;;;;;;19.40;6.10;;;12.40;99.90;;;;;;6154205;23;20492;-69
2023/11/14 08:28:01;;;;;;;19.50;5.33;;;12.40;99.90;;;;;;6154185;23;20906;-69
2023/11/14 08:30:29;;;;;;;21.60;4.80;;;12.40;99.90;;;;;;6153550;23;20416;-69
2023/11/14 08:32:56;;;;;;;17.10;4.87;;;12.50;99.90;;;;;;6153080;23;20493;-68
2023/11/14 08:35:24;;;;;;;23.07;7.10;;;12.50;99.90;;;;;;6153173;23;20410;-68
2023/11/14 08:37:52;;;;;;;19.20;5.00;;;12.60;99.90;;;;;;6153074;23;20472;-68
2023/11/14 08:40:19;;;;;;;12.80;5.00;;;12.60;99.90;;;;;;6153247;23;20766;-73
2023/11/14 08:42:49;;;;;;;21.73;6.43;;;12.70;99.90;;;;;;6152286;23;20517;-71
2023/11/14 08:45:17;;;;;;;22.70;5.43;;;12.70;99.90;;;;;;6154478;23;20413;-70
2023/11/14 08:47:44;;;;;;;20.80;5.03;;;12.70;99.90;;;;;;6154501;23;20441;-68
2023/11/14 08:50:12;;;;;;;13.17;4.60;;;12.60;99.90;;;;;;6155119;23;20409;-68
2023/11/14 08:52:39;;;;;;;24.20;5.00;;;12.70;99.90;;;;;;6154857;23;20413;-68
2023/11/14 08:55:07;;;;;;;20.80;5.30;;;12.70;99.90;;;;;;6154549;23;20421;-68
2023/11/14 08:57:34;;;;;;;24.77;6.10;;;12.70;99.90;;;;;;6154924;23;20477;-68
2023/11/14 09:00:03;;;;;;;21.43;6.20;;;12.60;99.90;;;;;;6154626;23;20410;-68
2023/11/14 09:02:32;;;;;;;25.57;7.67;;;12.60;99.90;;;;;;6155041;23;20517;-68
2023/11/14 09:04:58;;;;;;;21.37;8.27;;;12.60;99.90;;;;;;6154908;23;20416;-68
2023/11/14 09:07:25;;;;;;;20.43;7.83;;;12.70;99.90;;;;;;6156288;23;20409;-68
2023/11/14 09:09:52;;;;;;;24.87;10.20;;;12.80;99.90;;;;;;6156811;23;20409;-68
2023/11/14 09:12:19;;;;;;;20.97;6.30;;;12.90;99.90;;;;;;6156903;23;20406;-68
2023/11/14 09:14:46;;;;;;;17.57;6.03;;;13.00;99.90;;;;;;6156966;23;20802;-68
2023/11/14 09:17:13;;;;;;;18.17;5.07;;;12.90;99.90;;;;;;6156880;23;20409;-68
2023/11/14 09:19:42;;;;;;;22.83;4.57;;;12.90;99.90;;;;;;6156799;23;20722;-68
2023/11/14 09:22:08;;;;;;;17.40;5.20;;;12.90;99.90;;;;;;6156949;23;20444;-68
2023/11/14 09:24:35;;;;;;;16.57;3.83;;;12.80;99.90;;;;;;6156499;23;20492;-68
2023/11/14 09:27:02;;;;;;;21.73;5.03;;;12.80;99.90;;;;;;6156489;23;20448;-68
2023/11/14 09:29:30;;;;;;;21.67;5.00;;;12.80;99.90;;;;;;6156591;23;20780;-68
2023/11/14 09:31:57;;;;;;;16.20;4.73;;;12.80;99.90;;;;;;6156839;23;20512;-68
2023/11/14 09:34:24;;;;;;;20.03;5.50;;;12.80;99.90;;;;;;6156363;23;20446;-69
2023/11/14 09:36:53;;;;;;;19.07;7.90;;;12.70;99.90;;;;;;6156849;23;20416;-68
2023/11/14 09:39:20;;;;;;;21.60;5.17;;;12.70;99.90;;;;;;6156306;23;20882;-68
2023/11/14 09:41:47;;;;;;;27.27;5.40;;;12.80;99.90;;;;;;6156776;23;20793;-68
2023/11/14 09:44:14;;;;;;;17.10;4.60;;;12.80;99.90;;;;;;6156624;23;20725;-68
2023/11/14 09:46:43;;;;;;;23.02;6.25;;;13.00;99.90;;;;;;6155453;23;20470;-68
2023/11/14 09:49:09;;;;;;;29.07;5.67;;;13.10;99.90;;;;;;6156718;23;20627;-68
2023/11/14 09:51:38;;;;;;;18.80;5.57;;;13.20;99.90;;;;;;6155554;23;20440;-68
2023/11/14 09:54:07;;;;;;;18.30;5.13;;;13.20;99.90;;;;;;6156557;23;20621;-68
2023/11/14 09:56:34;;;;;;;23.13;3.87;;;13.10;99.90;;;;;;6156555;23;20456;-68
2023/11/14 09:59:02;;;;;;;12.23;3.80;;;13.20;99.90;;;;;;6156971;23;20441;-68
2023/11/14 10:01:30;;;;;;;19.63;6.70;;;13.10;99.90;;;;;;6156539;23;20843;-69
2023/11/14 10:03:58;;;;;;;24.83;6.38;;;13.10;99.90;;;;;;6155314;23;20456;-68
2023/11/14 10:06:25;;;;;;;21.50;5.53;;;13.10;99.90;;;;;;6157091;23;20528;-68
2023/11/14 10:08:55;;;;;;;18.63;4.30;;;13.10;99.90;;;;;;6155709;23;20413;-68
2023/11/14 10:11:24;;;;;;;24.10;4.43;;;13.10;99.90;;;;;;6156509;23;20201;-69
2023/11/14 10:14:02;;;;;;;22.77;4.60;;;13.20;99.90;;;;;;6156623;23;20449;-69
2023/11/14 10:16:28;;;;;;;12.80;3.77;;;13.30;99.90;;;;;;6156928;23;20400;-67
2023/11/14 10:18:55;;;;;;;13.40;3.20;;;13.30;99.90;;;;;;6156119;23;20444;-67
2023/11/14 10:21:24;;;;;;;13.05;4.50;;;13.40;99.90;;;;;;6155824;23;20444;-67
2023/11/14 10:23:51;;;;;;;17.50;4.60;;;13.40;99.90;;;;;;6156619;23;20170;-67
2023/11/14 10:26:18;;;;;;;23.03;6.23;;;13.50;99.90;;;;;;6155946;23;20497;-67
2023/11/14 10:28:54;;;;;;;16.00;4.50;;;13.40;99.90;;;;;;6156597;23;20778;-67
2023/11/14 10:31:38;;;;;;;21.83;4.90;;;13.30;99.90;;;;;;6156373;23;20394;-67
2023/11/14 10:34:06;;;;;;;21.80;4.33;;;13.20;99.90;;;;;;6156338;23;20469;-67
2023/11/14 10:36:46;;;;;;;13.93;5.47;;;13.20;99.90;;;;;;6156639;23;20746;-67
2023/11/14 10:39:13;;;;;;;13.20;4.50;;;13.00;99.90;;;;;;6156453;23;20400;-67
2023/11/14 10:41:40;;;;;;;20.53;5.80;;;13.10;99.90;;;;;;6156534;23;20414;-67
2023/11/14 10:44:10;;;;;;;14.00;6.17;;;13.10;99.90;;;;;;6156691;23;20497;-68
2023/11/14 10:46:37;;;;;;;21.70;11.83;;;12.80;99.90;;;;;;6156500;23;20409;-70
2023/11/14 10:49:08;;;;;;;22.17;19.00;;;12.60;99.90;;;;;;6156526;23;20797;-70
2023/11/14 10:51:37;;;;;;;63.63;59.63;;;12.50;99.90;;;;;;6156903;23;20748;-71
2023/11/14 10:54:06;;;;;;;114.70;109.87;;;12.40;99.90;;;;;;6156488;23;20410;-70
2023/11/14 10:56:34;;;;;;;223.82;215.38;;;12.40;99.90;;;;;;6154837;23;20439;-72
2023/11/14 10:59:03;;;;;;;107.77;102.37;;;12.40;99.90;;;;;;6156221;23;20181;-75
2023/11/14 11:01:33;;;;;;;115.10;110.00;;;12.40;99.90;;;;;;6156592;23;20417;-75
2023/11/14 11:04:01;;;;;;;63.57;59.63;;;12.50;99.90;;;;;;6156783;23;20442;-77
2023/11/14 11:06:28;;;;;;;72.43;68.77;;;12.70;99.90;;;;;;6156319;23;20969;-76
2023/11/14 11:08:56;;;;;;;41.87;39.37;;;12.80;99.90;;;;;;6155997;23;20417;-75
2023/11/14 11:11:28;;;;;;;30.13;28.03;;;12.90;99.90;;;;;;6156113;23;20414;-75
2023/11/14 11:13:57;;;;;;;31.87;28.40;;;12.90;99.90;;;;;;6156095;23;20847;-75
2023/11/14 11:16:45;;;;;;;20.27;12.40;;;13.10;99.90;;;;;;6156423;23;20409;-75
2023/11/14 11:19:18;;;;;;;20.93;9.13;;;13.30;99.90;;;;;;6156325;23;20761;-73
2023/11/14 11:22:03;;;;;;;21.30;6.10;;;13.40;99.90;;;;;;6155773;23;20394;-72
2023/11/14 11:24:30;;;;;;;13.30;3.73;;;13.30;99.90;;;;;;6155474;23;20401;-71
2023/11/14 11:27:17;;;;;;;23.93;5.20;;;13.20;99.90;;;;;;6155947;23;20501;-71
2023/11/14 11:29:55;;;;;;;11.10;4.10;;;13.10;99.90;;;;;;6156861;23;20393;-71
2023/11/14 11:32:32;;;;;;;14.87;5.03;;;13.00;99.90;;;;;;6156892;23;20480;-71
2023/11/14 11:35:33;;;;;;;18.55;4.43;;;13.00;99.90;;;;;;6155688;23;20413;-70
2023/11/14 11:38:09;;;;;;;10.23;3.57;;;13.10;99.90;;;;;;6154996;23;20158;-70
2023/11/14 11:40:37;;;;;;;12.97;4.70;;;13.10;99.90;;;;;;6155599;23;20422;-70
2023/11/14 11:43:20;;;;;;;10.70;2.53;;;13.00;99.90;;;;;;6154545;23;20577;-70
2023/11/14 11:45:49;;;;;;;15.83;3.30;;;12.90;99.90;;;;;;6155160;23;20917;-70
2023/11/14 11:48:34;;;;;;;7.17;2.70;;;12.80;99.90;;;;;;6155384;23;20788;-71
2023/11/14 11:51:21;;;;;;;10.90;3.50;;;12.50;99.90;;;;;;6155123;23;20493;-77
2023/11/14 11:53:49;;;;;;;11.80;5.10;;;11.90;99.90;;;;;;6154988;23;20921;-75
2023/11/14 11:56:40;;;;;;;8.80;6.27;;;11.80;99.90;;;;;;6155201;23;20417;-75
2023/11/14 11:59:07;;;;;;;13.20;7.50;;;11.20;99.90;;;;;;6155440;23;20389;-74
2023/11/14 12:01:34;;;;;;;28.43;26.67;;;11.10;99.90;;;;;;6155006;23;20409;-74
2023/11/14 12:04:03;;;;;;;102.07;97.93;;;11.00;99.90;;;;;;6155070;23;20909;-76
2023/11/14 12:06:30;;;;;;;266.63;258.30;;;11.20;99.90;;;;;;6154955;23;20414;-76
2023/11/14 12:08:57;;;;;;;372.27;361.03;;;11.30;99.90;;;;;;6155094;23;20409;-76
2023/11/14 12:11:24;;;;;;;453.10;439.70;;;11.60;99.90;;;;;;6155464;23;20439;-77
2023/11/14 12:13:53;;;;;;;314.30;303.50;;;11.80;99.90;;;;;;6155202;23;20441;-77
2023/11/14 12:16:21;;;;;;;331.43;321.07;;;11.90;99.90;;;;;;6155116;23;20414;-77
2023/11/14 12:18:50;;;;;;;450.00;435.80;;;12.00;99.90;;;;;;6155058;23;20742;-77
2023/11/14 12:21:19;;;;;;;519.60;502.80;;;12.00;99.90;;;;;;6155226;23;20488;-76
2023/11/14 12:23:46;;;;;;;590.73;570.83;;;12.00;99.90;;;;;;6155135;23;20469;-76
2023/11/14 12:26:14;;;;;;;595.67;575.10;;;12.10;99.90;;;;;;6155256;23;20563;-76
2023/11/14 12:28:43;;;;;;;673.00;647.10;;;12.10;99.90;;;;;;6154989;23;20453;-77
2023/11/14 12:31:12;;;;;;;740.37;708.47;;;12.10;99.90;;;;;;6155223;23;20420;-76
2023/11/14 12:33:46;;;;;;;735.50;703.03;;;12.00;99.90;;;;;;6155189;23;20409;-78
2023/11/14 12:36:23;;;;;;;750.97;717.27;;;12.00;99.90;;;;;;6155178;23;20445;-78